Time;durP1;ratioP1;P1;durP2;ratioP2;P2;SDS_P1;SDS_P2;PMS_P1;PMS_P2;Temp;Humidity;BMP_temperature;BMP_pressure;BME280_temperature;BME280_humidity;BME280_pressure;Samples;Min_cycle;Max_cycle;Signal;HPM_P1;HPM_P2
2023/04/30 00:03:23;;;;;;;27.47;18.03;;;;;6.90;101765.00;;;;9820933;29;20241;-75
2023/04/30 00:08:25;;;;;;;20.13;15.63;;;;;6.90;101770.00;;;;9824202;29;20601;-75
2023/04/30 00:13:27;;;;;;;21.90;15.53;;;;;6.80;101764.00;;;;9807495;29;20287;-75
2023/04/30 00:18:28;;;;;;;22.63;14.83;;;;;6.80;101755.00;;;;9823487;29;20227;-74
2023/04/30 00:23:29;;;;;;;19.97;13.50;;;;;6.70;101758.00;;;;9823846;29;20254;-74
2023/04/30 00:28:31;;;;;;;22.83;12.47;;;;;6.60;101750.00;;;;9826591;29;20228;-76
2023/04/30 00:33:32;;;;;;;16.17;11.67;;;;;6.60;101745.00;;;;9833928;29;21717;-74
2023/04/30 00:38:33;;;;;;;18.00;12.37;;;;;6.60;101743.00;;;;9819234;29;20230;-74
2023/04/30 00:43:35;;;;;;;21.07;12.57;;;;;6.50;101740.00;;;;9819431;29;20227;-75
2023/04/30 00:48:36;;;;;;;16.63;10.53;;;;;6.50;101737.00;;;;9820237;29;21069;-76
2023/04/30 00:53:39;;;;;;;19.30;10.47;;;;;6.40;101751.00;;;;9819234;29;21410;-74
2023/04/30 00:58:40;;;;;;;13.43;10.20;;;;;6.30;101738.00;;;;9803727;29;20235;-75
2023/04/30 01:03:42;;;;;;;16.37;11.10;;;;;6.30;101740.00;;;;9818631;29;21647;-80
2023/04/30 01:08:44;;;;;;;14.40;10.50;;;;;6.20;101742.00;;;;9820629;29;21815;-79
2023/04/30 01:14:11;;;;;;;14.83;10.80;;;;;6.10;101737.00;;;;9821053;29;20262;-78
2023/04/30 01:19:39;;;;;;;14.80;10.57;;;;;6.00;101730.00;;;;9820181;29;20335;-78
2023/04/30 01:25:00;;;;;;;16.37;10.67;;;;;6.00;101739.00;;;;9802834;29;20717;-78
2023/04/30 01:30:03;;;;;;;18.00;11.03;;;;;5.80;101731.00;;;;9821846;29;20338;-81
2023/04/30 01:35:05;;;;;;;17.93;11.87;;;;;5.80;101737.00;;;;9802935;29;20241;-77
2023/04/30 01:40:23;;;;;;;15.40;11.60;;;;;5.70;101738.00;;;;9803919;29;20215;-79
2023/04/30 01:45:35;;;;;;;17.13;12.47;;;;;5.60;101754.00;;;;9821290;29;22401;-77
2023/04/30 01:50:47;;;;;;;19.10;11.10;;;;;5.50;101740.00;;;;9817083;29;22111;-79
2023/04/30 01:55:56;;;;;;;18.87;11.63;;;;;5.40;101742.00;;;;9816497;29;20277;-78
2023/04/30 02:00:58;;;;;;;17.17;11.73;;;;;5.30;101749.00;;;;9786196;29;20234;-81
2023/04/30 02:05:59;;;;;;;20.90;13.40;;;;;5.30;101750.00;;;;9817691;29;20235;-79
2023/04/30 02:11:00;;;;;;;16.70;10.50;;;;;5.20;101751.00;;;;9816939;29;20230;-77
2023/04/30 02:16:03;;;;;;;19.47;11.57;;;;;5.20;101747.00;;;;9817553;29;20281;-79
2023/04/30 02:21:04;;;;;;;17.70;12.27;;;;;5.10;101736.00;;;;9817559;29;20231;-79
2023/04/30 02:26:06;;;;;;;18.93;12.60;;;;;5.10;101731.00;;;;9814939;29;20322;-79
2023/04/30 02:31:07;;;;;;;17.20;11.83;;;;;5.00;101739.00;;;;9817774;29;20227;-79
2023/04/30 02:36:08;;;;;;;18.77;12.70;;;;;4.90;101739.00;;;;9819752;29;21573;-77
2023/04/30 02:41:10;;;;;;;17.33;11.70;;;;;4.90;101730.00;;;;9818356;29;20346;-79
2023/04/30 02:46:11;;;;;;;22.03;13.07;;;;;4.90;101720.00;;;;9801618;29;20354;-77
2023/04/30 02:51:13;;;;;;;17.33;11.57;;;;;4.80;101727.00;;;;9814111;29;20230;-79
2023/04/30 02:56:14;;;;;;;21.17;12.87;;;;;4.80;101729.00;;;;9814745;29;20322;-79
2023/04/30 03:01:15;;;;;;;17.90;12.60;;;;;4.70;101733.00;;;;9813547;29;20223;-78
2023/04/30 03:06:18;;;;;;;19.47;12.60;;;;;4.70;101734.00;;;;9816606;29;20314;-78
2023/04/30 03:11:20;;;;;;;15.50;11.83;;;;;4.60;101735.00;;;;9816774;29;20223;-77
2023/04/30 03:16:21;;;;;;;17.00;11.67;;;;;4.50;101729.00;;;;9817907;29;20259;-77
2023/04/30 03:21:23;;;;;;;17.03;12.00;;;;;4.50;101738.00;;;;9824419;29;20231;-78
2023/04/30 03:26:24;;;;;;;20.07;12.83;;;;;4.50;101730.00;;;;9837994;29;20272;-78
2023/04/30 03:31:25;;;;;;;19.13;11.97;;;;;4.50;101727.00;;;;9822942;29;20227;-79
2023/04/30 03:36:27;;;;;;;19.50;11.20;;;;;4.40;101724.00;;;;9823736;29;21835;-78
2023/04/30 03:41:28;;;;;;;16.30;11.03;;;;;4.40;101719.00;;;;9806389;29;20262;-77
2023/04/30 03:46:30;;;;;;;13.57;10.33;;;;;4.30;101729.00;;;;9824130;29;20219;-78
2023/04/30 03:51:31;;;;;;;24.83;11.53;;;;;4.30;101731.00;;;;9826360;29;20270;-79
2023/04/30 03:56:34;;;;;;;15.37;11.50;;;;;4.20;101723.00;;;;9822480;29;20239;-78
2023/04/30 04:01:35;;;;;;;16.67;11.57;;;;;4.10;101724.00;;;;9814428;29;20332;-78
2023/04/30 04:06:36;;;;;;;16.40;11.30;;;;;4.10;101719.00;;;;9805253;29;21955;-79
2023/04/30 04:11:38;;;;;;;18.30;12.33;;;;;4.10;101728.00;;;;9822971;29;20234;-76
2023/04/30 04:16:40;;;;;;;18.10;11.67;;;;;4.10;101720.00;;;;9820520;29;20619;-77
2023/04/30 04:21:41;;;;;;;22.57;11.80;;;;;4.10;101720.00;;;;9821746;29;20231;-78
2023/04/30 04:26:48;;;;;;;16.60;11.80;;;;;4.10;101725.00;;;;9803541;29;21620;-78
2023/04/30 04:31:50;;;;;;;17.00;11.03;;;;;4.20;101734.00;;;;9817532;29;20291;-78
2023/04/30 04:36:51;;;;;;;18.20;12.13;;;;;4.20;101746.00;;;;9818870;29;20290;-77
2023/04/30 04:41:54;;;;;;;17.70;11.63;;;;;4.20;101740.00;;;;9819398;29;20238;-80
2023/04/30 04:46:55;;;;;;;18.20;11.43;;;;;4.30;101753.00;;;;9819452;29;20231;-78
2023/04/30 04:51:57;;;;;;;17.50;12.03;;;;;4.30;101749.00;;;;9805979;29;20284;-80
2023/04/30 04:56:58;;;;;;;19.87;11.57;;;;;4.50;101746.00;;;;9816770;29;20238;-78
2023/04/30 05:01:59;;;;;;;17.20;11.93;;;;;4.70;101755.00;;;;9819068;29;20345;-76
2023/04/30 05:07:02;;;;;;;19.43;12.07;;;;;4.90;101758.00;;;;9818637;29;20239;-79
2023/04/30 05:12:03;;;;;;;20.37;13.20;;;;;5.30;101754.00;;;;9821285;29;20241;-79
2023/04/30 05:17:06;;;;;;;22.90;14.30;;;;;5.70;101749.00;;;;9819410;29;21903;-78
2023/04/30 05:22:07;;;;;;;21.37;13.83;;;;;6.10;101753.00;;;;9819943;29;20940;-79
2023/04/30 05:27:09;;;;;;;24.47;14.33;;;;;6.40;101747.00;;;;9819600;29;20256;-77
2023/04/30 05:32:10;;;;;;;21.30;14.47;;;;;6.70;101749.00;;;;9821568;29;21635;-79
2023/04/30 05:37:13;;;;;;;22.70;14.17;;;;;7.00;101747.00;;;;9819048;29;20235;-79
2023/04/30 05:42:14;;;;;;;25.33;15.77;;;;;7.30;101749.00;;;;9817224;29;20970;-80
2023/04/30 05:47:16;;;;;;;24.90;15.17;;;;;7.70;101735.00;;;;9816306;29;22005;-79
2023/04/30 05:52:17;;;;;;;21.37;15.20;;;;;8.10;101737.00;;;;9817364;29;20222;-78
2023/04/30 05:57:19;;;;;;;25.70;17.27;;;;;8.50;101735.00;;;;9818162;29;20443;-81
2023/04/30 06:02:20;;;;;;;23.70;16.33;;;;;9.00;101729.00;;;;9818953;29;20230;-79
2023/04/30 06:07:21;;;;;;;18.67;14.20;;;;;9.50;101726.00;;;;9819393;29;20231;-78
2023/04/30 06:12:23;;;;;;;19.60;14.60;;;;;9.90;101723.00;;;;9820088;29;20306;-80
2023/04/30 06:17:24;;;;;;;19.37;14.33;;;;;10.30;101722.00;;;;9814974;29;20245;-77
2023/04/30 06:22:26;;;;;;;19.50;15.10;;;;;10.60;101720.00;;;;9818925;29;20299;-79
2023/04/30 06:27:27;;;;;;;16.93;14.20;;;;;10.90;101731.00;;;;9814173;29;20258;-77
2023/04/30 06:32:28;;;;;;;19.30;14.77;;;;;11.40;101739.00;;;;9817537;29;20255;-79
2023/04/30 06:37:34;;;;;;;17.53;13.27;;;;;11.80;101725.00;;;;9788508;29;22643;-76
2023/04/30 06:42:36;;;;;;;17.70;13.97;;;;;12.10;101735.00;;;;9817274;29;20242;-78
2023/04/30 06:47:37;;;;;;;16.30;13.80;;;;;12.60;101731.00;;;;9816340;29;20279;-79
2023/04/30 06:52:38;;;;;;;20.00;13.20;;;;;13.00;101738.00;;;;9821626;29;21752;-78
2023/04/30 06:57:40;;;;;;;18.93;14.13;;;;;13.30;101734.00;;;;9808144;29;20230;-78
2023/04/30 07:02:41;;;;;;;17.00;13.23;;;;;13.50;101730.00;;;;9835880;29;20250;-78
2023/04/30 07:07:43;;;;;;;15.77;13.70;;;;;13.80;101724.00;;;;9821410;29;21987;-78
2023/04/30 07:12:45;;;;;;;17.43;14.70;;;;;14.00;101721.00;;;;9822990;29;20235;-79
2023/04/30 07:17:46;;;;;;;18.33;14.83;;;;;13.90;101716.00;;;;9825868;29;20248;-79
2023/04/30 07:22:47;;;;;;;21.10;15.63;;;;;14.10;101720.00;;;;9830146;29;20505;-77
2023/04/30 07:27:51;;;;;;;18.23;14.97;;;;;14.70;101719.00;;;;9822040;29;20265;-79
2023/04/30 07:32:53;;;;;;;18.60;14.47;;;;;15.20;101708.00;;;;9824676;29;21244;-79
2023/04/30 07:37:55;;;;;;;20.40;16.15;;;;;15.40;101705.00;;;;9836919;29;21281;-79
2023/04/30 07:42:57;;;;;;;18.50;15.73;;;;;15.50;101697.00;;;;9826061;29;20290;-78
2023/04/30 07:47:58;;;;;;;23.88;16.45;;;;;15.80;101699.00;;;;9821931;29;21858;-77
2023/04/30 07:53:00;;;;;;;19.88;16.13;;;;;16.50;101704.00;;;;9822048;29;20254;-79
2023/04/30 07:58:02;;;;;;;17.45;15.07;;;;;17.30;101703.00;;;;9822569;29;20230;-78
2023/04/30 08:03:04;;;;;;;20.75;15.38;;;;;17.60;101703.00;;;;9810389;29;20269;-80
2023/04/30 08:08:05;;;;;;;19.60;15.35;;;;;17.80;101689.00;;;;9813972;29;20829;-80
2023/04/30 08:13:07;;;;;;;17.73;15.52;;;;;18.20;101695.00;;;;9821889;29;20231;-80
2023/04/30 08:18:08;;;;;;;17.70;15.50;;;;;18.70;101684.00;;;;9823861;29;20230;-80
2023/04/30 08:23:10;;;;;;;20.20;15.55;;;;;19.40;101694.00;;;;9820831;29;20222;-79
2023/04/30 08:28:11;;;;;;;17.23;15.07;;;;;19.70;101695.00;;;;9821194;29;20591;-79
2023/04/30 08:33:13;;;;;;;17.88;14.82;;;;;19.50;101685.00;;;;9815902;29;21623;-78
2023/04/30 08:38:14;;;;;;;18.02;15.23;;;;;19.90;101687.00;;;;9819539;29;20227;-79
2023/04/30 08:43:17;;;;;;;16.15;14.38;;;;;20.40;101682.00;;;;9818111;29;20238;-78
2023/04/30 08:48:22;;;;;;;17.58;14.88;;;;;20.70;101682.00;;;;9820808;29;22651;-77
2023/04/30 08:53:23;;;;;;;16.65;13.88;;;;;20.90;101679.00;;;;9822364;29;20347;-79
2023/04/30 08:58:25;;;;;;;17.13;14.50;;;;;21.00;101682.00;;;;9818802;29;20710;-79
2023/04/30 09:03:27;;;;;;;15.75;13.32;;;;;21.30;101670.00;;;;9823375;29;20227;-79
2023/04/30 09:08:42;;;;;;;18.13;15.30;;;;;21.60;101661.00;;;;9810312;29;20357;-78
2023/04/30 09:13:43;;;;;;;16.55;12.73;;;;;21.90;101668.00;;;;9808712;29;21237;-79
2023/04/30 09:18:46;;;;;;;15.13;13.07;;;;;21.90;101668.00;;;;9821398;29;20753;-79
2023/04/30 09:23:55;;;;;;;16.98;12.50;;;;;22.30;101658.00;;;;9814329;29;20230;-77
2023/04/30 09:28:58;;;;;;;17.08;12.95;;;;;22.70;101654.00;;;;9815987;29;20227;-79
2023/04/30 09:33:59;;;;;;;13.77;10.90;;;;;22.80;101659.00;;;;9815586;29;20241;-78
2023/04/30 09:39:12;;;;;;;12.32;11.02;;;;;22.80;101656.00;;;;9816022;29;20230;-79
2023/04/30 09:44:34;;;;;;;13.77;10.93;;;;;23.30;101649.00;;;;9817563;29;20241;-80
2023/04/30 09:49:37;;;;;;;13.77;9.25;;;;;23.50;101648.00;;;;9829713;29;20294;-78
2023/04/30 09:54:39;;;;;;;13.57;10.82;;;;;23.20;101637.00;;;;9839257;29;20239;-81
2023/04/30 09:59:45;;;;;;;10.82;9.30;;;;;23.80;101636.00;;;;9832213;29;20238;-77
2023/04/30 10:04:53;;;;;;;11.52;8.98;;;;;23.80;101634.00;;;;9847425;29;21605;-78
2023/04/30 10:09:58;;;;;;;9.45;8.30;;;;;24.00;101630.00;;;;9842052;29;20230;-79
2023/04/30 10:15:10;;;;;;;11.27;9.05;;;;;24.00;101628.00;;;;9836743;29;20262;-79
2023/04/30 10:20:11;;;;;;;10.77;8.70;;;;;24.00;101625.00;;;;9840102;29;20227;-78
2023/04/30 10:25:13;;;;;;;10.40;8.55;;;;;24.50;101623.00;;;;9834743;29;20970;-78
2023/04/30 10:30:15;;;;;;;8.88;7.95;;;;;24.90;101618.00;;;;9843758;29;20456;-79
2023/04/30 10:35:23;;;;;;;5.13;4.63;;;;;25.40;101625.00;;;;9845899;29;20324;-78
2023/04/30 10:40:27;;;;;;;9.82;7.35;;;;;25.20;101607.00;;;;9870434;29;20222;-77
2023/04/30 10:45:37;;;;;;;9.80;6.40;;;;;25.50;101605.00;;;;9957167;24;20314;31
2023/04/30 10:50:49;;;;;;;7.18;5.57;;;;;25.80;101595.00;;;;2492282;24;20841;-81
2023/04/30 10:56:23;;;;;;;8.10;6.30;;;;;25.50;101586.00;;;;3913580;24;20415;-78
2023/04/30 11:01:25;;;;;;;4.70;4.28;;;;;25.00;101570.00;;;;9876174;29;20242;-79
2023/04/30 11:06:53;;;;;;;6.07;5.15;;;;;25.00;101570.00;;;;9876389;29;20226;-78
2023/04/30 11:23:48;;;;;;;6.03;5.20;;;;;25.50;101546.00;;;;3147433;24;23401;31
2023/04/30 11:28:53;;;;;;;6.97;5.63;;;;;26.20;101543.00;;;;10192654;24;20257;-77
2023/04/30 11:33:54;;;;;;;6.25;5.65;;;;;26.30;101530.00;;;;10461210;24;20607;-77
2023/04/30 11:38:56;;;;;;;8.68;5.30;;;;;26.90;101517.00;;;;10571598;24;20245;-79
2023/04/30 11:43:57;;;;;;;5.25;4.75;;;;;27.10;101518.00;;;;9947251;29;20318;-79
2023/04/30 11:48:59;;;;;;;4.82;4.32;;;;;26.40;101519.00;;;;9964176;24;20254;-77
2023/04/30 11:54:00;;;;;;;5.32;4.82;;;;;26.50;101507.00;;;;10136536;24;21556;-76
2023/04/30 11:59:09;;;;;;;9.82;8.55;;;;;25.70;101502.00;;;;9980201;24;20242;-78
2023/04/30 12:04:10;;;;;;;8.65;6.93;;;;;25.50;101496.00;;;;10203453;24;20348;-79
2023/04/30 12:09:12;;;;;;;5.82;5.25;;;;;25.40;101485.00;;;;9948680;29;20253;-77
2023/04/30 12:14:14;;;;;;;6.70;5.30;;;;;26.00;101478.00;;;;10080983;24;20284;-80
2023/04/30 12:19:17;;;;;;;6.00;4.57;;;;;26.20;101463.00;;;;9960780;29;20259;-77
2023/04/30 12:24:18;;;;;;;6.80;5.90;;;;;26.30;101469.00;;;;9944358;29;20238;-79
2023/04/30 12:29:22;;;;;;;5.63;3.85;;;;;26.00;101467.00;;;;9935269;29;20550;-78
2023/04/30 12:34:25;;;;;;;4.28;3.60;;;;;25.90;101449.00;;;;9945293;29;20255;-76
2023/04/30 12:39:32;;;;;;;5.38;3.90;;;;;26.30;101456.00;;;;9932371;29;20218;-79
2023/04/30 12:50:08;;;;;;;3.20;2.90;;;;;26.60;101440.00;;;;10661057;24;20233;31
2023/04/30 12:55:17;;;;;;;3.08;2.70;;;;;26.80;101445.00;;;;10577568;24;20219;-81
2023/04/30 13:00:19;;;;;;;4.03;3.00;;;;;27.00;101439.00;;;;10020312;24;20265;-80
2023/04/30 13:05:21;;;;;;;3.55;2.72;;;;;26.70;101426.00;;;;9961027;24;20265;-78
2023/04/30 13:10:24;;;;;;;3.40;2.70;;;;;26.20;101433.00;;;;10008031;24;20242;-83
2023/04/30 13:15:25;;;;;;;6.68;5.65;;;;;25.80;101422.00;;;;10135781;24;20309;-78
2023/04/30 13:20:27;;;;;;;2.95;2.65;;;;;25.70;101421.00;;;;10255116;24;20246;-78
2023/04/30 13:25:29;;;;;;;2.88;2.67;;;;;25.60;101416.00;;;;9900555;29;21514;-79
2023/04/30 13:30:30;;;;;;;4.20;2.88;;;;;25.60;101405.00;;;;9900015;29;20226;-79
2023/04/30 13:35:31;;;;;;;5.05;2.22;;;;;26.10;101396.00;;;;9879174;29;20472;-81
2023/04/30 13:40:33;;;;;;;2.80;2.50;;;;;26.70;101396.00;;;;9875854;29;20220;-80
2023/04/30 13:45:34;;;;;;;3.67;2.60;;;;;27.10;101386.00;;;;9882285;29;21168;-78
2023/04/30 13:51:00;;;;;;;4.15;2.67;;;;;28.50;101381.00;;;;10815985;24;20309;31
2023/04/30 13:56:02;;;;;;;2.88;2.60;;;;;28.80;101377.00;;;;9818316;29;21111;-78
2023/04/30 14:01:03;;;;;;;3.97;2.85;;;;;28.80;101377.00;;;;9804554;29;20334;-78
2023/04/30 14:06:05;;;;;;;3.28;2.47;;;;;28.90;101372.00;;;;9804314;29;20247;-81
2023/04/30 14:11:06;;;;;;;4.75;2.53;;;;;27.80;101382.00;;;;9811735;29;21898;-81
2023/04/30 14:16:08;;;;;;;3.42;3.08;;;;;28.90;101372.00;;;;9809032;29;20246;-78
2023/04/30 14:21:17;;;;;;;5.15;3.70;;;;;28.50;101369.00;;;;10014349;24;20242;31
2023/04/30 14:26:18;;;;;;;12.98;10.02;;;;;29.60;101360.00;;;;9867670;24;20258;-78
2023/04/30 14:31:19;;;;;;;2.92;1.98;;;;;31.70;101349.00;;;;10122749;24;20259;-79
2023/04/30 14:36:21;;;;;;;2.53;2.33;;;;;32.70;101334.00;;;;9891054;29;20256;-78
2023/04/30 14:41:22;;;;;;;3.67;2.40;;;;;33.20;101346.00;;;;9871456;29;20226;-79
2023/04/30 14:46:23;;;;;;;3.58;2.60;;;;;33.40;101346.00;;;;9837829;29;20229;-77
2023/04/30 14:51:25;;;;;;;4.38;3.97;;;;;28.10;101367.00;;;;9859933;29;20250;-78
2023/04/30 14:56:26;;;;;;;5.68;2.20;;;;;24.10;101366.00;;;;9835031;29;20262;-78
2023/04/30 15:01:29;;;;;;;5.38;1.67;;;;;24.40;101351.00;;;;9840306;29;20229;-80
2023/04/30 15:06:30;;;;;;;2.05;1.70;;;;;24.60;101333.00;;;;9817578;29;20665;-79
2023/04/30 15:11:32;;;;;;;2.17;2.00;;;;;25.30;101343.00;;;;9834482;29;20851;-79
2023/04/30 15:16:33;;;;;;;3.00;1.90;;;;;24.00;101325.00;;;;9860653;29;20247;-80
2023/04/30 15:21:35;;;;;;;2.38;2.05;;;;;23.60;101315.00;;;;9847121;29;20231;-79
2023/04/30 15:26:36;;;;;;;2.15;1.98;;;;;24.00;101303.00;;;;9847991;29;21559;-79
2023/04/30 15:31:38;;;;;;;1.80;1.70;;;;;24.10;101299.00;;;;9868656;29;20449;-80
2023/04/30 15:36:39;;;;;;;2.13;1.85;;;;;23.70;101291.00;;;;9883151;29;20331;-79
2023/04/30 15:41:41;;;;;;;3.30;1.92;;;;;24.20;101297.00;;;;9863319;29;21845;-80
2023/04/30 15:46:42;;;;;;;2.63;1.60;;;;;24.90;101294.00;;;;9847345;29;20237;-77
2023/04/30 15:51:44;;;;;;;2.40;1.73;;;;;23.00;101306.00;;;;9845337;29;20588;-79
2023/04/30 15:56:46;;;;;;;2.28;1.48;;;;;22.30;101290.00;;;;9853909;29;20587;-80
2023/04/30 16:01:47;;;;;;;1.40;1.30;;;;;22.20;101288.00;;;;9849517;29;20680;-80
2023/04/30 16:06:49;;;;;;;1.10;1.00;;;;;22.20;101278.00;;;;9849243;29;20232;-79
2023/04/30 16:11:50;;;;;;;1.45;1.15;;;;;22.20;101278.00;;;;9816526;29;20295;-80
2023/04/30 16:16:52;;;;;;;1.20;1.10;;;;;22.20;101264.00;;;;9848808;29;20369;-79
2023/04/30 16:21:54;;;;;;;1.35;0.90;;;;;22.10;101266.00;;;;9844174;29;20219;-81
2023/04/30 16:26:56;;;;;;;1.45;1.23;;;;;21.70;101255.00;;;;9860724;29;20313;-79
2023/04/30 16:31:57;;;;;;;1.60;1.17;;;;;21.40;101249.00;;;;9868979;29;20210;-80
2023/04/30 16:36:59;;;;;;;3.40;1.30;;;;;21.20;101244.00;;;;9873687;29;20253;-81
2023/04/30 16:42:01;;;;;;;1.65;1.00;;;;;20.80;101246.00;;;;9866166;29;20288;-78
2023/04/30 16:47:02;;;;;;;1.35;1.10;;;;;20.40;101242.00;;;;9875313;29;21351;-79
2023/04/30 16:52:04;;;;;;;1.30;1.20;;;;;20.20;101240.00;;;;9869091;29;20243;-79
2023/04/30 16:57:06;;;;;;;2.95;1.40;;;;;20.20;101244.00;;;;9858495;29;20262;-78
2023/04/30 17:02:11;;;;;;;2.05;1.30;;;;;20.20;101240.00;;;;9856135;29;20845;-80
2023/04/30 17:07:13;;;;;;;3.08;1.52;;;;;20.20;101232.00;;;;9825180;29;20258;-77
2023/04/30 17:12:18;;;;;;;1.33;1.23;;;;;20.30;101227.00;;;;9834064;29;20313;-77
2023/04/30 17:17:20;;;;;;;1.85;1.10;;;;;20.40;101222.00;;;;9848516;29;21627;-77
2023/04/30 17:22:22;;;;;;;2.05;1.30;;;;;20.30;101222.00;;;;9852704;29;20650;-76
2023/04/30 17:27:26;;;;;;;1.20;1.10;;;;;20.10;101218.00;;;;9852496;29;20219;-77
2023/04/30 17:32:27;;;;;;;1.55;1.20;;;;;19.90;101212.00;;;;9851199;29;20648;-77
2023/04/30 17:37:29;;;;;;;2.35;1.20;;;;;19.70;101207.00;;;;9866608;29;21055;-76
2023/04/30 17:42:32;;;;;;;1.33;1.23;;;;;19.20;101214.00;;;;9855200;29;20848;-77
2023/04/30 17:47:34;;;;;;;1.73;1.20;;;;;18.80;101210.00;;;;9838906;29;20335;-78
2023/04/30 17:52:37;;;;;;;2.33;1.70;;;;;18.50;101206.00;;;;9853616;29;20223;-77
2023/04/30 17:57:38;;;;;;;1.23;1.13;;;;;18.20;101213.00;;;;9853549;29;20231;-78
2023/04/30 18:02:40;;;;;;;2.60;1.60;;;;;18.10;101212.00;;;;9837764;29;20614;-77
2023/04/30 18:07:42;;;;;;;1.88;1.23;;;;;17.90;101211.00;;;;9851807;29;20639;-78
2023/04/30 18:12:43;;;;;;;2.30;1.45;;;;;17.80;101211.00;;;;9855884;29;22150;-77
2023/04/30 18:17:44;;;;;;;3.60;1.70;;;;;17.60;101202.00;;;;9853799;29;20238;-77
2023/04/30 18:22:46;;;;;;;1.50;1.30;;;;;17.40;101204.00;;;;9836898;29;20225;-77
2023/04/30 18:27:48;;;;;;;4.00;1.60;;;;;17.20;101204.00;;;;9854058;29;20230;-77
2023/04/30 18:32:50;;;;;;;1.48;1.38;;;;;17.00;101208.00;;;;9853777;29;20227;-78
2023/04/30 18:37:51;;;;;;;2.85;2.55;;;;;16.80;101202.00;;;;9850799;29;20242;-78
2023/04/30 18:42:55;;;;;;;3.75;2.00;;;;;16.60;101193.00;;;;9847545;29;20223;-77
2023/04/30 18:47:56;;;;;;;7.85;2.42;;;;;16.50;101196.00;;;;9836316;29;20230;-78
2023/04/30 18:52:58;;;;;;;2.90;2.03;;;;;16.30;101192.00;;;;9856720;29;20239;-76
2023/04/30 18:57:59;;;;;;;2.63;1.98;;;;;16.10;101194.00;;;;9856516;29;20848;-79
2023/04/30 19:03:01;;;;;;;3.65;2.40;;;;;15.90;101194.00;;;;9858831;29;20219;-77
2023/04/30 19:08:02;;;;;;;4.88;2.72;;;;;15.70;101200.00;;;;9857223;29;20232;-77
2023/04/30 19:13:05;;;;;;;4.70;2.88;;;;;15.60;101193.00;;;;9844403;29;20226;-78
2023/04/30 19:18:09;;;;;;;4.15;3.05;;;;;15.50;101189.00;;;;9832581;29;20231;-79
2023/04/30 19:23:11;;;;;;;4.75;4.07;;;;;15.40;101195.00;;;;9831349;29;20231;-78
2023/04/30 19:28:14;;;;;;;6.13;3.55;;;;;15.30;101200.00;;;;9814715;29;20222;-77
2023/04/30 19:33:15;;;;;;;4.82;3.45;;;;;15.20;101203.00;;;;9800141;29;20309;-77
2023/04/30 19:38:17;;;;;;;5.55;3.30;;;;;15.20;101194.00;;;;9831053;29;20777;-78
2023/04/30 19:43:23;;;;;;;5.72;4.60;;;;;15.10;101209.00;;;;9797813;29;20643;-78
2023/04/30 19:48:25;;;;;;;5.00;3.88;;;;;15.10;101207.00;;;;9803896;29;20234;-78
2023/04/30 19:53:27;;;;;;;5.93;3.97;;;;;15.10;101210.00;;;;9812597;29;20211;-78
2023/04/30 19:58:29;;;;;;;4.25;3.53;;;;;15.10;101210.00;;;;9808122;29;20793;-76
2023/04/30 20:03:30;;;;;;;4.07;3.67;;;;;15.10;101210.00;;;;9805757;29;20231;-78
2023/04/30 20:08:32;;;;;;;6.60;3.85;;;;;15.00;101205.00;;;;9811130;29;20893;-78
2023/04/30 20:13:33;;;;;;;4.20;3.72;;;;;15.00;101202.00;;;;9812092;29;20496;-78
2023/04/30 20:18:34;;;;;;;4.53;3.85;;;;;14.90;101210.00;;;;9823826;29;20643;-79
2023/04/30 20:23:39;;;;;;;4.70;3.87;;;;;14.90;101205.00;;;;9833989;29;20287;-78
2023/04/30 20:28:41;;;;;;;3.57;3.27;;;;;14.90;101207.00;;;;9846343;29;20296;-77
2023/04/30 20:33:42;;;;;;;6.55;3.53;;;;;14.90;101209.00;;;;9860945;29;20258;-77
2023/04/30 20:38:44;;;;;;;4.00;3.58;;;;;14.80;101205.00;;;;9858569;29;20227;-77
2023/04/30 20:43:45;;;;;;;4.15;3.75;;;;;14.80;101201.00;;;;9857674;29;20310;-78
2023/04/30 20:48:47;;;;;;;4.57;3.28;;;;;14.70;101196.00;;;;9858183;29;20687;-78
2023/04/30 20:53:48;;;;;;;3.92;3.47;;;;;14.60;101197.00;;;;9857220;29;20291;-77
2023/04/30 20:58:50;;;;;;;3.87;3.30;;;;;14.60;101198.00;;;;9859016;29;20230;-77
2023/04/30 21:03:51;;;;;;;4.60;3.80;;;;;14.50;101198.00;;;;9830127;29;20219;-76
2023/04/30 21:08:52;;;;;;;4.87;4.10;;;;;14.40;101192.00;;;;9839478;29;21010;-76
2023/04/30 21:13:54;;;;;;;4.40;3.43;;;;;14.30;101191.00;;;;9864061;29;20323;-77
2023/04/30 21:18:56;;;;;;;4.33;3.90;;;;;14.20;101187.00;;;;9861301;29;20218;-78
2023/04/30 21:23:59;;;;;;;4.10;3.70;;;;;14.10;101185.00;;;;9843950;29;20721;-78
2023/04/30 21:29:01;;;;;;;5.10;3.47;;;;;14.00;101188.00;;;;9858455;29;20222;-77
2023/04/30 21:34:03;;;;;;;3.67;3.37;;;;;14.00;101195.00;;;;9845040;29;20235;-77
2023/04/30 21:39:04;;;;;;;4.83;3.57;;;;;13.90;101187.00;;;;9841745;29;20229;-79
2023/04/30 21:44:05;;;;;;;3.70;3.40;;;;;13.80;101184.00;;;;9845254;29;20678;-82
2023/04/30 21:49:07;;;;;;;5.07;3.60;;;;;13.80;101186.00;;;;9835097;29;20226;-83
2023/04/30 21:54:08;;;;;;;4.23;3.93;;;;;13.70;101177.00;;;;9837927;29;20910;-82
2023/04/30 21:59:10;;;;;;;7.23;3.67;;;;;13.60;101174.00;;;;9850275;29;21027;-82
2023/04/30 22:04:12;;;;;;;8.10;3.47;;;;;13.60;101179.00;;;;9836383;29;20314;-83
2023/04/30 22:09:14;;;;;;;4.43;3.50;;;;;13.50;101175.00;;;;9846320;29;20242;-82
2023/04/30 22:14:15;;;;;;;4.27;3.57;;;;;13.50;101167.00;;;;9850128;29;20245;-82
2023/04/30 22:19:17;;;;;;;4.00;3.60;;;;;13.50;101169.00;;;;9852027;29;20226;-81
2023/04/30 22:24:19;;;;;;;7.80;3.63;;;;;13.50;101162.00;;;;9838765;29;20234;-82
2023/04/30 22:29:20;;;;;;;3.97;3.57;;;;;13.40;101164.00;;;;9859675;29;20685;-81
2023/04/30 22:34:22;;;;;;;6.07;3.77;;;;;13.40;101159.00;;;;9840513;29;21714;-83
2023/04/30 22:39:23;;;;;;;3.50;3.20;;;;;13.40;101156.00;;;;9856770;29;20218;-83
2023/04/30 22:44:25;;;;;;;5.17;3.97;;;;;13.30;101154.00;;;;9857468;29;20218;-81
2023/04/30 22:49:28;;;;;;;5.60;3.90;;;;;13.30;101160.00;;;;9838757;29;20882;-81
2023/04/30 22:54:34;;;;;;;5.47;4.53;;;;;13.20;101148.00;;;;9841314;29;21170;-82
2023/04/30 22:59:35;;;;;;;8.03;4.50;;;;;13.20;101150.00;;;;9841323;29;21351;-83
2023/04/30 23:04:36;;;;;;;7.47;4.40;;;;;13.10;101138.00;;;;9851742;29;20883;-84
2023/04/30 23:09:38;;;;;;;5.27;4.37;;;;;13.10;101143.00;;;;9854211;29;20227;-83
2023/04/30 23:14:40;;;;;;;5.93;3.87;;;;;13.00;101136.00;;;;9856190;29;20227;-83
2023/04/30 23:19:41;;;;;;;3.93;3.33;;;;;13.00;101135.00;;;;9844517;29;20242;-82
2023/04/30 23:24:43;;;;;;;4.60;3.70;;;;;12.90;101139.00;;;;9840926;29;20231;-83
2023/04/30 23:29:44;;;;;;;3.90;3.50;;;;;12.90;101130.00;;;;9838302;29;20283;-80
2023/04/30 23:34:46;;;;;;;7.50;4.13;;;;;12.70;101125.00;;;;9839970;29;20274;-81
2023/04/30 23:39:47;;;;;;;7.50;3.80;;;;;12.60;101121.00;;;;9852839;29;20545;-82
2023/04/30 23:44:49;;;;;;;5.47;3.77;;;;;12.50;101113.00;;;;9855699;29;20594;-82
2023/04/30 23:49:50;;;;;;;5.97;3.80;;;;;12.40;101112.00;;;;9857875;29;20303;-82
2023/04/30 23:54:51;;;;;;;4.90;3.60;;;;;12.40;101111.00;;;;9827066;29;20250;-81
2023/04/30 23:59:53;;;;;;;5.13;3.57;;;;;12.30;101107.00;;;;9856618;29;20255;-82
